Time;durP1;ratioP1;P1;durP2;ratioP2;P2;SDS_P1;SDS_P2;PMS_P1;PMS_P2;Temp;Humidity;BMP_temperature;BMP_pressure;BME280_temperature;BME280_humidity;BME280_pressure;Samples;Min_cycle;Max_cycle;Signal;HPM_P1;HPM_P2
2021/05/13 00:01:37;;;;;;;;;;;15.30;67.20;;;;;;4291062;33;20037;-80
2021/05/13 00:04:07;;;;;;;;;;;15.30;67.20;;;;;;4278762;33;20073;-80
2021/05/13 00:06:35;;;;;;;;;;;15.30;67.20;;;;;;4290733;33;20103;-80
2021/05/13 00:09:07;;;;;;;;;;;15.30;67.30;;;;;;4290665;33;20066;-80
2021/05/13 00:11:43;;;;;;;;;;;15.20;67.20;;;;;;4303258;33;20006;-80
2021/05/13 00:14:10;;;;;;;;;;;15.20;67.50;;;;;;4303583;33;20087;-80
2021/05/13 00:16:40;;;;;;;;;;;15.10;67.60;;;;;;4302358;33;20049;-80
2021/05/13 00:19:17;;;;;;;;;;;15.00;67.80;;;;;;4290185;33;20013;-80
2021/05/13 00:21:50;;;;;;;;;;;15.00;67.80;;;;;;4303575;33;20104;-80
2021/05/13 00:24:20;;;;;;;;;;;14.90;67.70;;;;;;4290553;33;20033;-80
2021/05/13 00:26:50;;;;;;;;;;;14.90;67.70;;;;;;4303531;33;20116;-80
2021/05/13 00:29:21;;;;;;;;;;;15.00;67.50;;;;;;4303193;33;20005;-80
2021/05/13 00:31:54;;;;;;;;;;;14.90;67.40;;;;;;4290322;33;20062;-80
2021/05/13 00:34:24;;;;;;;;;;;14.90;67.40;;;;;;4277996;33;20006;-80
2021/05/13 00:36:57;;;;;;;;;;;15.00;67.30;;;;;;4301664;33;20014;-80
2021/05/13 00:39:25;;;;;;;;;;;15.00;67.20;;;;;;4303450;33;20021;-80
2021/05/13 00:41:55;;;;;;;;;;;15.00;67.00;;;;;;4290257;33;20020;-80
2021/05/13 00:44:25;;;;;;;;;;;14.90;66.80;;;;;;4290033;33;20458;-80
2021/05/13 00:46:52;;;;;;;;;;;14.90;66.80;;;;;;4302761;33;20065;-80
2021/05/13 00:49:23;;;;;;;;;;;14.90;66.70;;;;;;4303221;33;20136;-80
2021/05/13 00:51:52;;;;;;;;;;;14.90;66.80;;;;;;4290082;33;20021;-80
2021/05/13 00:54:22;;;;;;;;;;;14.90;66.80;;;;;;4302135;33;20061;-80
2021/05/13 00:56:49;;;;;;;;;;;14.90;66.70;;;;;;4290138;33;20057;-80
2021/05/13 00:59:28;;;;;;;;;;;14.90;66.60;;;;;;4289778;33;20356;-80
2021/05/13 01:01:59;;;;;;;;;;;14.80;66.50;;;;;;4289650;33;20351;-80
2021/05/13 01:04:32;;;;;;;;;;;14.80;66.50;;;;;;4289825;33;20448;-80
2021/05/13 01:06:59;;;;;;;;;;;14.80;66.60;;;;;;4289715;33;20014;-79
2021/05/13 01:09:35;;;;;;;;;;;14.80;66.60;;;;;;4301543;33;20100;-79
2021/05/13 01:12:10;;;;;;;;;;;14.80;67.30;;;;;;4290055;33;20040;-80
2021/05/13 01:14:43;;;;;;;;;;;14.80;66.60;;;;;;4301942;33;20016;-80
2021/05/13 01:17:19;;;;;;;;;;;14.70;66.50;;;;;;4303111;33;20534;-79
2021/05/13 01:19:51;;;;;;;;;;;14.70;66.40;;;;;;4302782;33;20010;-80
2021/05/13 01:22:21;;;;;;;;;;;14.70;66.40;;;;;;4302058;33;19998;-79
2021/05/13 01:24:49;;;;;;;;;;;14.60;66.40;;;;;;4302033;33;20003;-79
2021/05/13 01:27:22;;;;;;;;;;;14.60;66.50;;;;;;4302508;33;20024;-79
2021/05/13 01:29:57;;;;;;;;;;;14.70;66.70;;;;;;4277957;33;20037;-79
2021/05/13 01:32:24;;;;;;;;;;;14.60;66.50;;;;;;4302891;33;20024;-79
2021/05/13 01:34:54;;;;;;;;;;;14.60;66.60;;;;;;4302744;33;20084;-79
2021/05/13 01:37:30;;;;;;;;;;;14.50;66.50;;;;;;4302897;33;20014;-79
2021/05/13 01:39:59;;;;;;;;;;;14.50;66.40;;;;;;4302426;33;20363;-79
2021/05/13 01:42:29;;;;;;;;;;;14.50;66.30;;;;;;4289579;33;20008;-79
2021/05/13 01:45:02;;;;;;;;;;;14.50;66.50;;;;;;4290117;33;20049;-79
2021/05/13 01:47:39;;;;;;;;;;;14.40;66.40;;;;;;4289519;33;20016;-79
2021/05/13 01:50:09;;;;;;;;;;;14.40;66.60;;;;;;4289138;33;20396;-79
2021/05/13 01:52:45;;;;;;;;;;;14.40;66.50;;;;;;4278103;33;20002;-78
2021/05/13 01:55:13;;;;;;;;;;;14.40;66.40;;;;;;4289469;33;20017;-79
2021/05/13 01:57:43;;;;;;;;;;;14.40;66.30;;;;;;4302620;33;20112;-79
2021/05/13 02:00:13;;;;;;;;;;;14.30;67.10;;;;;;4302745;33;19999;-79
2021/05/13 02:02:44;;;;;;;;;;;14.30;66.40;;;;;;4302006;33;20064;-79
2021/05/13 02:05:12;;;;;;;;;;;14.30;66.50;;;;;;4302383;33;20016;-79
2021/05/13 02:07:45;;;;;;;;;;;14.30;66.50;;;;;;4289407;33;20065;-79
2021/05/13 02:10:16;;;;;;;;;;;14.30;66.40;;;;;;4289455;33;20018;-79
2021/05/13 02:12:56;;;;;;;;;;;14.20;66.30;;;;;;4301598;33;20016;-79
2021/05/13 02:15:27;;;;;;;;;;;14.30;66.40;;;;;;4302699;33;20020;-79
2021/05/13 02:17:54;;;;;;;;;;;14.20;66.30;;;;;;4289398;33;20013;-79
2021/05/13 02:20:22;;;;;;;;;;;14.20;66.40;;;;;;4302405;33;20133;-79
2021/05/13 02:22:57;;;;;;;;;;;14.20;66.20;;;;;;4302493;33;20018;-79
2021/05/13 02:25:31;;;;;;;;;;;14.10;66.20;;;;;;4289705;33;20017;-79
2021/05/13 02:28:02;;;;;;;;;;;14.10;66.30;;;;;;4302488;33;20015;-78
2021/05/13 02:30:32;;;;;;;;;;;14.10;66.20;;;;;;4302546;33;20050;-79
2021/05/13 02:33:04;;;;;;;;;;;14.10;66.30;;;;;;4289679;33;20002;-79
2021/05/13 02:35:51;;;;;;;;;;;14.10;66.30;;;;;;4303916;33;20024;-79
2021/05/13 02:38:21;;;;;;;;;;;14.10;66.30;;;;;;4305042;33;20010;-79
2021/05/13 02:40:57;;;;;;;;;;;14.10;66.20;;;;;;4291814;33;20132;-79
2021/05/13 02:43:25;;;;;;;;;;;14.00;66.10;;;;;;4279955;33;20059;-79
2021/05/13 02:45:55;;;;;;;;;;;14.00;66.10;;;;;;4304817;33;20014;-79
2021/05/13 02:48:22;;;;;;;;;;;14.00;66.00;;;;;;4291665;33;20010;-79
2021/05/13 02:50:52;;;;;;;;;;;14.00;66.10;;;;;;4304727;33;20049;-79
2021/05/13 02:53:22;;;;;;;;;;;13.90;66.10;;;;;;4304784;33;20301;-79
2021/05/13 02:55:51;;;;;;;;;;;13.90;66.00;;;;;;4291627;33;20035;-79
2021/05/13 02:58:26;;;;;;;;;;;13.90;66.10;;;;;;4304803;33;20012;-79
2021/05/13 03:01:22;;;;;;;;;;;13.90;66.00;;;;;;4304686;33;20024;-79
2021/05/13 03:03:50;;;;;;;;;;;13.90;65.80;;;;;;4279825;33;20021;-79
2021/05/13 03:06:17;;;;;;;;;;;13.90;65.90;;;;;;4304249;33;20016;-79
2021/05/13 03:08:45;;;;;;;;;;;13.80;65.80;;;;;;4291312;33;19998;-79
2021/05/13 03:11:18;;;;;;;;;;;13.80;66.00;;;;;;4304808;33;20400;-79
2021/05/13 03:13:47;;;;;;;;;;;13.80;66.10;;;;;;4304144;33;20002;-79
2021/05/13 03:16:14;;;;;;;;;;;13.80;66.20;;;;;;4304260;33;20010;-79
2021/05/13 03:18:54;;;;;;;;;;;13.80;66.20;;;;;;4291085;33;20042;-79
2021/05/13 03:21:36;;;;;;;;;;;13.70;66.10;;;;;;4303232;33;20070;-79
2021/05/13 03:29:19;;;;;;;;;;;13.70;65.80;;;;;;4303960;33;20029;-79
2021/05/13 03:31:48;;;;;;;;;;;13.70;66.00;;;;;;4304202;33;20006;-79
2021/05/13 03:34:15;;;;;;;;;;;13.70;66.10;;;;;;4302802;33;20006;-79
2021/05/13 03:36:46;;;;;;;;;;;13.70;66.00;;;;;;4304247;33;20026;-79
2021/05/13 03:39:19;;;;;;;;;;;13.70;66.10;;;;;;4290922;33;20030;-79
2021/05/13 03:41:48;;;;;;;;;;;13.70;66.00;;;;;;4304128;33;20012;-79
2021/05/13 03:44:15;;;;;;;;;;;13.60;65.90;;;;;;4302567;33;20047;-79
2021/05/13 03:46:45;;;;;;;;;;;13.60;65.90;;;;;;4303356;33;20091;-79
2021/05/13 03:49:12;;;;;;;;;;;13.60;66.20;;;;;;4303012;33;20010;-79
2021/05/13 03:51:43;;;;;;;;;;;13.60;66.10;;;;;;4303649;33;20012;-79
2021/05/13 03:54:10;;;;;;;;;;;13.60;66.30;;;;;;4303795;33;20089;-79
2021/05/13 03:56:42;;;;;;;;;;;13.60;66.20;;;;;;4290681;33;19998;-79
2021/05/13 03:59:18;;;;;;;;;;;13.60;66.10;;;;;;4290937;33;20106;-79
2021/05/13 04:02:30;;;;;;;;;;;13.60;66.10;;;;;;4303442;33;20028;-79
2021/05/13 04:04:38;;;;;;;;;;;13.60;66.30;;;;;;4299762;33;20066;-79
2021/05/13 04:07:06;;;;;;;;;;;13.60;66.40;;;;;;4303775;33;20006;-79
2021/05/13 04:09:36;;;;;;;;;;;13.60;66.40;;;;;;4302687;33;20409;-79
2021/05/13 04:12:03;;;;;;;;;;;13.50;66.40;;;;;;4278408;33;20012;-79
2021/05/13 04:14:33;;;;;;;;;;;13.40;67.20;;;;;;4290305;33;20062;-79
2021/05/13 04:17:11;;;;;;;;;;;13.50;66.50;;;;;;4303582;33;20041;-79
2021/05/13 04:19:39;;;;;;;;;;;13.50;66.40;;;;;;4290520;33;20347;-79
2021/05/13 04:22:08;;;;;;;;;;;13.40;66.40;;;;;;4302430;33;20028;-79
2021/05/13 04:24:36;;;;;;;;;;;13.50;66.40;;;;;;4290179;33;20011;-79
2021/05/13 04:27:09;;;;;;;;;;;13.40;66.40;;;;;;4290401;33;20073;-79
2021/05/13 04:29:36;;;;;;;;;;;13.40;66.20;;;;;;4290512;33;20014;-79
2021/05/13 04:32:07;;;;;;;;;;;13.40;66.30;;;;;;4303487;33;20005;-79
2021/05/13 04:34:34;;;;;;;;;;;13.40;66.30;;;;;;4302281;33;20020;-79
2021/05/13 04:37:07;;;;;;;;;;;13.40;66.20;;;;;;4302021;33;20006;-79
2021/05/13 04:39:39;;;;;;;;;;;13.50;66.40;;;;;;4290362;33;20016;-78
2021/05/13 04:42:12;;;;;;;;;;;13.40;66.40;;;;;;4303321;33;20034;-79
2021/05/13 04:44:41;;;;;;;;;;;13.40;66.30;;;;;;4303272;33;20018;-79
2021/05/13 04:49:54;;;;;;;;;;;13.40;66.60;;;;;;4303310;33;20347;-79
2021/05/13 04:52:24;;;;;;;;;;;13.40;66.70;;;;;;4302701;33;20073;-79
2021/05/13 04:54:58;;;;;;;;;;;13.40;66.70;;;;;;4289799;33;20054;-79
2021/05/13 04:57:25;;;;;;;;;;;13.40;66.70;;;;;;4301746;33;20317;-79
2021/05/13 04:59:52;;;;;;;;;;;13.40;66.70;;;;;;4289899;33;20469;-79
2021/05/13 05:02:22;;;;;;;;;;;13.40;66.70;;;;;;4289609;33;20014;-79
2021/05/13 05:04:55;;;;;;;;;;;13.40;67.10;;;;;;4289642;33;20004;-79
2021/05/13 05:07:22;;;;;;;;;;;13.40;67.20;;;;;;4301804;33;20121;-78
2021/05/13 05:09:52;;;;;;;;;;;13.40;67.40;;;;;;4289754;33;20042;-78
2021/05/13 05:12:22;;;;;;;;;;;13.40;67.50;;;;;;4302959;33;20012;-79
2021/05/13 05:14:50;;;;;;;;;;;13.40;67.70;;;;;;4289442;33;20050;-78
2021/05/13 05:17:22;;;;;;;;;;;13.50;67.90;;;;;;4301638;33;20016;-78
2021/05/13 05:19:52;;;;;;;;;;;13.40;67.90;;;;;;4289790;33;20002;-78
2021/05/13 05:22:22;;;;;;;;;;;13.50;68.10;;;;;;4289421;33;19994;-79
2021/05/13 05:24:49;;;;;;;;;;;13.50;68.20;;;;;;4301665;33;20002;-78
2021/05/13 05:27:22;;;;;;;;;;;13.40;68.30;;;;;;4289717;33;20012;-78
2021/05/13 05:29:49;;;;;;;;;;;13.50;68.60;;;;;;4289363;33;20004;-78
2021/05/13 05:32:22;;;;;;;;;;;13.50;68.70;;;;;;4277536;33;20013;-78
2021/05/13 05:34:54;;;;;;;;;;;13.50;68.70;;;;;;4302892;33;20006;-79
2021/05/13 05:37:27;;;;;;;;;;;13.50;68.70;;;;;;4302834;33;20015;-78
2021/05/13 05:39:55;;;;;;;;;;;13.50;68.80;;;;;;4289642;33;20010;-78
2021/05/13 05:42:28;;;;;;;;;;;13.50;68.90;;;;;;4302576;33;20014;-78
2021/05/13 05:44:57;;;;;;;;;;;13.50;69.00;;;;;;4302593;33;20436;-78
2021/05/13 05:47:29;;;;;;;;;;;13.60;69.10;;;;;;4302477;33;20054;-78
2021/05/13 05:49:56;;;;;;;;;;;13.60;69.20;;;;;;4289530;33;20058;-78
2021/05/13 05:52:27;;;;;;;;;;;13.60;69.10;;;;;;4277332;33;20032;-78
2021/05/13 05:54:57;;;;;;;;;;;13.50;69.10;;;;;;4302743;33;20061;-79
2021/05/13 05:57:25;;;;;;;;;;;13.60;69.10;;;;;;4277458;33;20039;-79
2021/05/13 05:59:55;;;;;;;;;;;13.60;69.10;;;;;;4289300;33;20054;-79
2021/05/13 06:02:28;;;;;;;;;;;13.60;69.10;;;;;;4289024;33;20006;-79
2021/05/13 06:04:58;;;;;;;;;;;13.60;69.30;;;;;;4277276;33;20018;-79
2021/05/13 06:07:25;;;;;;;;;;;13.60;69.40;;;;;;4301360;33;20462;-79
2021/05/13 06:09:56;;;;;;;;;;;13.60;69.40;;;;;;4292114;33;20065;-79
2021/05/13 06:12:26;;;;;;;;;;;13.60;69.30;;;;;;4304183;33;20010;-79
2021/05/13 06:14:56;;;;;;;;;;;13.60;69.30;;;;;;4305317;33;20010;-79
2021/05/13 06:17:23;;;;;;;;;;;13.60;69.20;;;;;;4304737;33;20020;-79
2021/05/13 06:19:50;;;;;;;;;;;13.60;69.20;;;;;;4305014;33;20010;-79
2021/05/13 06:22:17;;;;;;;;;;;13.60;69.30;;;;;;4280320;33;20006;-79
2021/05/13 06:24:45;;;;;;;;;;;13.60;69.30;;;;;;4305162;33;20077;-79
2021/05/13 06:27:13;;;;;;;;;;;13.60;69.30;;;;;;4291947;33;20012;-79
2021/05/13 06:29:42;;;;;;;;;;;13.60;69.20;;;;;;4305153;33;20451;-79
2021/05/13 06:32:12;;;;;;;;;;;13.60;69.20;;;;;;4304717;33;20010;-79
2021/05/13 06:34:46;;;;;;;;;;;13.60;69.20;;;;;;4291838;33;20420;-79
2021/05/13 06:37:13;;;;;;;;;;;13.70;69.30;;;;;;4304875;33;20039;-79
2021/05/13 06:39:40;;;;;;;;;;;13.70;69.40;;;;;;4305093;33;20006;-79
2021/05/13 06:42:14;;;;;;;;;;;13.70;69.40;;;;;;4291638;33;20045;-79
2021/05/13 06:44:44;;;;;;;;;;;13.70;69.70;;;;;;4305184;33;20061;-79
2021/05/13 06:47:14;;;;;;;;;;;13.70;69.70;;;;;;4305017;33;20021;-79
2021/05/13 06:49:42;;;;;;;;;;;13.70;69.80;;;;;;4291491;33;20067;-79
2021/05/13 06:52:12;;;;;;;;;;;13.70;69.90;;;;;;4291902;33;20014;-79
2021/05/13 06:54:42;;;;;;;;;;;13.70;69.90;;;;;;4304855;33;20124;-79
2021/05/13 06:57:12;;;;;;;;;;;13.70;69.90;;;;;;4291420;33;20048;-79
2021/05/13 06:59:41;;;;;;;;;;;13.70;69.90;;;;;;4304933;33;20065;-79
2021/05/13 07:02:11;;;;;;;;;;;13.80;70.00;;;;;;4304336;33;20028;-79
2021/05/13 07:04:44;;;;;;;;;;;13.80;70.10;;;;;;4304575;33;20050;-79
2021/05/13 07:07:12;;;;;;;;;;;13.80;70.10;;;;;;4291311;33;20001;-79
2021/05/13 07:09:43;;;;;;;;;;;13.80;70.10;;;;;;4291508;33;20069;-79
2021/05/13 07:12:10;;;;;;;;;;;13.80;70.20;;;;;;4304309;33;20008;-79
2021/05/13 07:14:43;;;;;;;;;;;13.80;70.20;;;;;;4303349;33;20070;-79
2021/05/13 07:17:13;;;;;;;;;;;13.80;70.40;;;;;;4291416;33;20024;-79
2021/05/13 07:19:40;;;;;;;;;;;13.80;70.50;;;;;;4303164;33;20438;-79
2021/05/13 07:22:07;;;;;;;;;;;13.80;70.60;;;;;;4304276;33;20007;-78
2021/05/13 07:24:39;;;;;;;;;;;13.80;70.60;;;;;;4290946;33;20051;-79
2021/05/13 07:27:12;;;;;;;;;;;13.90;70.50;;;;;;4304397;33;20014;-79
2021/05/13 07:29:39;;;;;;;;;;;13.90;70.30;;;;;;4291247;33;20061;-79
2021/05/13 07:32:07;;;;;;;;;;;13.90;70.10;;;;;;4303190;33;20058;-79
2021/05/13 07:34:34;;;;;;;;;;;13.90;69.90;;;;;;4304251;33;20016;-79
2021/05/13 07:37:02;;;;;;;;;;;13.90;69.80;;;;;;4303896;33;20002;-79
2021/05/13 07:39:32;;;;;;;;;;;13.90;69.70;;;;;;4302938;33;20026;-79
2021/05/13 07:42:00;;;;;;;;;;;13.90;69.60;;;;;;4304204;33;20007;-79
2021/05/13 07:44:27;;;;;;;;;;;13.90;69.60;;;;;;4303060;33;20355;-79
2021/05/13 07:46:57;;;;;;;;;;;13.90;69.60;;;;;;4304040;33;20015;-79
2021/05/13 07:49:28;;;;;;;;;;;14.00;69.60;;;;;;4304088;33;20007;-79
2021/05/13 07:51:58;;;;;;;;;;;14.00;69.60;;;;;;4302845;33;20047;-79
2021/05/13 07:54:25;;;;;;;;;;;14.00;69.50;;;;;;4303758;33;20036;-79
2021/05/13 07:56:52;;;;;;;;;;;14.00;69.80;;;;;;4290820;33;20125;-79
2021/05/13 07:59:20;;;;;;;;;;;14.00;69.40;;;;;;4278885;33;20047;-80
2021/05/13 08:01:47;;;;;;;;;;;14.00;69.30;;;;;;4303427;33;20013;-79
2021/05/13 08:04:15;;;;;;;;;;;14.10;69.10;;;;;;4303569;33;20057;-79
2021/05/13 08:06:42;;;;;;;;;;;14.00;69.10;;;;;;4303843;33;20129;-80
2021/05/13 08:09:15;;;;;;;;;;;14.00;68.80;;;;;;4303642;33;20036;-79
2021/05/13 08:11:42;;;;;;;;;;;14.00;69.10;;;;;;4303442;33;20012;-80
2021/05/13 08:14:09;;;;;;;;;;;14.10;69.00;;;;;;4290686;33;20392;-80
2021/05/13 08:16:39;;;;;;;;;;;14.20;69.00;;;;;;4278181;33;20012;-80
2021/05/13 08:19:07;;;;;;;;;;;14.10;68.80;;;;;;4302587;33;20014;-79
2021/05/13 08:21:35;;;;;;;;;;;14.20;68.90;;;;;;4303413;33;20057;-80
2021/05/13 08:24:02;;;;;;;;;;;14.20;68.90;;;;;;4303429;33;20244;-80
2021/05/13 08:26:32;;;;;;;;;;;14.20;68.80;;;;;;4303504;33;20053;-80
2021/05/13 08:29:02;;;;;;;;;;;14.20;68.70;;;;;;4303130;33;20002;-80
2021/05/13 08:31:29;;;;;;;;;;;14.20;68.60;;;;;;4303291;33;20018;-80
2021/05/13 08:33:59;;;;;;;;;;;14.30;68.70;;;;;;4290228;33;20019;-80
2021/05/13 08:36:29;;;;;;;;;;;14.30;68.70;;;;;;4289908;33;20011;-80
2021/05/13 08:38:56;;;;;;;;;;;14.30;68.70;;;;;;4290293;33;20474;-80
2021/05/13 08:41:26;;;;;;;;;;;14.30;68.60;;;;;;4303245;33;20055;-80
2021/05/13 08:43:57;;;;;;;;;;;14.40;68.60;;;;;;4302219;33;20061;-79
2021/05/13 08:46:24;;;;;;;;;;;14.40;68.50;;;;;;4301939;33;20037;-80
2021/05/13 08:48:52;;;;;;;;;;;14.40;68.40;;;;;;4303214;33;20069;-79
2021/05/13 08:51:19;;;;;;;;;;;14.50;68.40;;;;;;4303202;33;20009;-79
2021/05/13 08:53:53;;;;;;;;;;;14.50;68.40;;;;;;4303078;33;20010;-79
2021/05/13 08:56:24;;;;;;;;;;;14.50;68.40;;;;;;4289762;33;20416;-79
2021/05/13 08:58:55;;;;;;;;;;;14.50;68.20;;;;;;4303284;33;20421;-79
2021/05/13 09:01:25;;;;;;;;;;;14.60;68.20;;;;;;4302780;33;20462;-79
2021/05/13 09:03:53;;;;;;;;;;;14.70;68.00;;;;;;4303107;33;20149;-78
2021/05/13 09:06:39;;;;;;;;;;;14.70;68.00;;;;;;4289588;33;19998;-79
2021/05/13 09:09:11;;;;;;;;;;;14.70;67.80;;;;;;4289895;33;20019;-79
2021/05/13 09:11:57;;;;;;;;;;;14.80;67.60;;;;;;4289658;33;20062;-79
2021/05/13 09:14:32;;;;;;;;;;;14.80;67.50;;;;;;4290007;33;20408;-79
2021/05/13 09:17:02;;;;;;;;;;;14.80;67.40;;;;;;4302907;33;20011;-79
2021/05/13 09:19:32;;;;;;;;;;;14.90;67.30;;;;;;4289823;33;20014;-79
2021/05/13 09:22:11;;;;;;;;;;;14.90;67.40;;;;;;4277801;33;20062;-79
2021/05/13 09:24:44;;;;;;;;;;;14.90;67.00;;;;;;4290023;33;20061;-79
2021/05/13 09:27:17;;;;;;;;;;;14.90;67.00;;;;;;4302610;33;20006;-79
2021/05/13 09:29:45;;;;;;;;;;;14.90;66.90;;;;;;4302818;33;20020;-79
2021/05/13 09:32:15;;;;;;;;;;;14.90;66.60;;;;;;4301352;33;20017;-80
2021/05/13 09:34:48;;;;;;;;;;;14.90;66.70;;;;;;4289760;33;20020;-80
2021/05/13 09:37:18;;;;;;;;;;;14.90;66.50;;;;;;4302455;33;19998;-80
2021/05/13 09:39:48;;;;;;;;;;;15.00;66.70;;;;;;4289467;33;20409;-80
2021/05/13 09:42:20;;;;;;;;;;;15.00;66.70;;;;;;4302287;33;20025;-80
2021/05/13 09:44:52;;;;;;;;;;;15.00;66.80;;;;;;4305615;33;20024;-80
2021/05/13 09:47:29;;;;;;;;;;;15.00;66.30;;;;;;4305663;33;20066;-80
2021/05/13 09:50:02;;;;;;;;;;;15.10;66.50;;;;;;4292598;33;20024;-80
2021/05/13 09:52:37;;;;;;;;;;;15.10;66.40;;;;;;4304526;33;20099;-80
2021/05/13 09:55:15;;;;;;;;;;;15.10;66.40;;;;;;4305485;33;20022;-80
2021/05/13 09:57:49;;;;;;;;;;;15.10;66.40;;;;;;4304331;33;20018;-80
2021/05/13 10:00:40;;;;;;;;;;;15.10;66.40;;;;;;4304479;33;20014;-80
2021/05/13 10:03:13;;;;;;;;;;;15.10;66.40;;;;;;4304640;33;20010;-80
2021/05/13 10:05:47;;;;;;;;;;;15.10;66.50;;;;;;4304369;33;20024;-80
2021/05/13 10:08:23;;;;;;;;;;;15.10;66.40;;;;;;4305373;33;20014;-80
2021/05/13 10:10:53;;;;;;;;;;;15.10;66.50;;;;;;4305145;33;20002;-81
2021/05/13 10:13:28;;;;;;;;;;;15.20;66.60;;;;;;4305310;33;20006;-81
2021/05/13 10:16:01;;;;;;;;;;;15.20;66.60;;;;;;4305255;33;20089;-81
2021/05/13 10:18:38;;;;;;;;;;;15.10;66.50;;;;;;4280302;33;20030;-80
2021/05/13 10:21:12;;;;;;;;;;;15.20;66.60;;;;;;4291998;33;20026;-80
2021/05/13 10:23:45;;;;;;;;;;;15.20;66.60;;;;;;4305122;33;20305;-80
2021/05/13 10:26:32;;;;;;;;;;;15.20;66.60;;;;;;4305260;33;20056;-79
2021/05/13 10:29:20;;;;;;;;;;;15.30;66.70;;;;;;4303737;33;20018;-80
2021/05/13 10:32:10;;;;;;;;;;;15.20;66.50;;;;;;4302538;33;20020;-80
2021/05/13 10:34:45;;;;;;;;;;;15.20;66.50;;;;;;4291631;33;20003;-80
2021/05/13 10:37:12;;;;;;;;;;;15.20;66.40;;;;;;4303925;33;20013;-80
2021/05/13 10:39:58;;;;;;;;;;;15.20;66.50;;;;;;4303851;33;20058;-80
2021/05/13 10:42:32;;;;;;;;;;;15.20;66.50;;;;;;4304888;33;20006;-80
2021/05/13 10:45:02;;;;;;;;;;;15.20;66.50;;;;;;4292090;33;20028;-80
2021/05/13 10:47:33;;;;;;;;;;;15.20;66.50;;;;;;4279532;33;20008;-80
2021/05/13 10:50:03;;;;;;;;;;;15.20;66.60;;;;;;4291745;33;20018;-80
2021/05/13 10:52:33;;;;;;;;;;;15.20;66.60;;;;;;4304850;33;20073;-80
2021/05/13 10:55:04;;;;;;;;;;;15.20;66.60;;;;;;4303344;33;20061;-80
2021/05/13 10:57:45;;;;;;;;;;;15.20;66.60;;;;;;4304630;33;20054;-80
2021/05/13 11:00:18;;;;;;;;;;;15.20;66.60;;;;;;4291418;33;20010;-80
2021/05/13 11:02:47;;;;;;;;;;;15.30;66.80;;;;;;4304090;33;20020;-80
2021/05/13 11:05:43;;;;;;;;;;;15.30;66.90;;;;;;4291114;33;20013;-80
2021/05/13 11:08:19;;;;;;;;;;;15.30;67.00;;;;;;4291123;33;20016;-80
2021/05/13 11:10:52;;;;;;;;;;;15.30;66.90;;;;;;4304640;33;20014;-80
2021/05/13 11:13:20;;;;;;;;;;;15.30;66.90;;;;;;4303592;33;20014;-80
2021/05/13 11:15:53;;;;;;;;;;;15.30;66.80;;;;;;4291375;33;20057;-79
2021/05/13 11:18:24;;;;;;;;;;;15.30;66.70;;;;;;4291302;33;20006;-80
2021/05/13 11:21:00;;;;;;;;;;;15.40;66.70;;;;;;4291814;33;20483;-79
2021/05/13 11:23:37;;;;;;;;;;;15.40;66.40;;;;;;4279245;33;20400;-80
2021/05/13 11:26:14;;;;;;;;;;;15.40;66.70;;;;;;4304432;33;20014;-80
2021/05/13 11:28:50;;;;;;;;;;;15.40;66.60;;;;;;4304328;33;20392;-79
2021/05/13 11:31:20;;;;;;;;;;;15.40;66.60;;;;;;4303126;33;20010;-79
2021/05/13 11:33:48;;;;;;;;;;;15.50;66.50;;;;;;4291040;33;20015;-79
2021/05/13 11:36:27;;;;;;;;;;;15.50;66.50;;;;;;4304224;33;20112;-80
2021/05/13 11:38:58;;;;;;;;;;;15.50;66.40;;;;;;4290735;33;20010;-80
2021/05/13 11:41:28;;;;;;;;;;;15.60;66.20;;;;;;4291175;33;20024;-79
2021/05/13 11:43:58;;;;;;;;;;;15.60;65.70;;;;;;4290505;33;20061;-80
2021/05/13 11:46:26;;;;;;;;;;;15.60;65.40;;;;;;4303928;33;20065;-80
2021/05/13 11:48:59;;;;;;;;;;;15.60;65.80;;;;;;4290830;33;20047;-80
2021/05/13 11:51:29;;;;;;;;;;;15.70;65.60;;;;;;4302749;33;20371;-80
2021/05/13 11:54:15;;;;;;;;;;;15.70;65.50;;;;;;4290397;33;20492;-80
2021/05/13 11:56:45;;;;;;;;;;;15.70;66.10;;;;;;4303919;33;20062;-80
2021/05/13 11:59:15;;;;;;;;;;;15.80;65.50;;;;;;4302758;33;20026;-80
2021/05/13 12:01:46;;;;;;;;;;;15.70;65.30;;;;;;4302638;33;20020;-80
2021/05/13 12:04:16;;;;;;;;;;;15.70;64.80;;;;;;4290756;33;20006;-80
2021/05/13 12:07:01;;;;;;;;;;;15.80;65.00;;;;;;4289554;33;20026;-80
2021/05/13 12:09:34;;;;;;;;;;;15.80;65.00;;;;;;4290414;33;20008;-80
2021/05/13 12:12:04;;;;;;;;;;;15.80;65.20;;;;;;4303798;33;20054;-80
2021/05/13 12:14:32;;;;;;;;;;;15.80;65.40;;;;;;4302151;33;20429;-80
2021/05/13 12:17:04;;;;;;;;;;;15.80;65.50;;;;;;4303278;33;20389;-80
2021/05/13 12:19:38;;;;;;;;;;;15.80;65.80;;;;;;4290436;33;20014;-79
2021/05/13 12:22:09;;;;;;;;;;;15.70;66.80;;;;;;4303541;33;20415;-79
2021/05/13 12:24:40;;;;;;;;;;;15.70;66.80;;;;;;4302468;33;20036;-80
2021/05/13 12:27:09;;;;;;;;;;;15.70;66.40;;;;;;4302451;33;20018;-80
2021/05/13 12:29:42;;;;;;;;;;;15.70;66.20;;;;;;4278368;33;20366;-80
2021/05/13 12:32:27;;;;;;;;;;;15.70;66.10;;;;;;4303620;33;20053;-80
2021/05/13 12:34:54;;;;;;;;;;;15.60;65.90;;;;;;4303497;33;20433;-80
2021/05/13 12:37:22;;;;;;;;;;;15.60;65.90;;;;;;4303376;33;20006;-79
2021/05/13 12:39:53;;;;;;;;;;;15.70;66.10;;;;;;4290158;33;20017;-79
2021/05/13 12:42:27;;;;;;;;;;;15.70;66.20;;;;;;4303061;33;20014;-80
2021/05/13 12:45:14;;;;;;;;;;;15.70;66.50;;;;;;4290264;33;20014;-80
2021/05/13 12:47:42;;;;;;;;;;;15.70;66.90;;;;;;4277903;33;20010;-79
2021/05/13 12:50:12;;;;;;;;;;;15.70;67.40;;;;;;4290818;33;20116;-80
2021/05/13 12:52:45;;;;;;;;;;;15.70;67.90;;;;;;4289949;33;20018;-79
2021/05/13 12:55:16;;;;;;;;;;;15.70;68.30;;;;;;4289950;33;20024;-79
2021/05/13 12:57:48;;;;;;;;;;;15.70;68.60;;;;;;4302931;33;20016;-79
2021/05/13 13:00:18;;;;;;;;;;;15.70;68.40;;;;;;4303086;33;20011;-80
2021/05/13 13:02:46;;;;;;;;;;;15.70;68.70;;;;;;4301752;33;20462;-80
2021/05/13 13:05:18;;;;;;;;;;;15.70;69.20;;;;;;4290050;33;20013;-80
2021/05/13 13:07:46;;;;;;;;;;;15.70;69.60;;;;;;4303119;33;20070;-80
2021/05/13 13:10:25;;;;;;;;;;;15.70;69.70;;;;;;4303176;33;20007;-80
2021/05/13 13:13:06;;;;;;;;;;;15.70;70.30;;;;;;4301719;33;20337;-80
2021/05/13 13:15:42;;;;;;;;;;;15.70;70.00;;;;;;4302864;33;20007;-79
2021/05/13 13:18:13;;;;;;;;;;;15.60;70.10;;;;;;4301420;33;20420;-79
2021/05/13 13:20:44;;;;;;;;;;;15.60;70.10;;;;;;4289657;33;20006;-80
2021/05/13 13:23:23;;;;;;;;;;;15.60;70.10;;;;;;4289964;33;20077;-79
2021/05/13 13:26:02;;;;;;;;;;;15.50;70.10;;;;;;4289617;33;19998;-79
2021/05/13 13:28:35;;;;;;;;;;;15.50;70.30;;;;;;4301810;33;20020;-79
2021/05/13 13:31:09;;;;;;;;;;;15.50;70.50;;;;;;4302988;33;20049;-79
2021/05/13 13:33:45;;;;;;;;;;;15.60;70.70;;;;;;4302564;33;20021;-79
2021/05/13 13:36:15;;;;;;;;;;;15.50;70.70;;;;;;4302868;33;20013;-79
2021/05/13 13:38:47;;;;;;;;;;;15.50;70.90;;;;;;4302852;33;20002;-79
2021/05/13 13:41:16;;;;;;;;;;;15.50;70.90;;;;;;4302769;33;20340;-80
2021/05/13 13:43:43;;;;;;;;;;;15.50;71.10;;;;;;4301669;33;20011;-78
2021/05/13 13:46:15;;;;;;;;;;;15.50;71.30;;;;;;4301011;33;20030;-79
2021/05/13 13:48:42;;;;;;;;;;;15.50;71.30;;;;;;4301701;33;20026;-79
2021/05/13 13:51:10;;;;;;;;;;;15.50;71.50;;;;;;4289249;33;20014;-79
2021/05/13 13:53:40;;;;;;;;;;;15.50;71.50;;;;;;4289398;33;20427;-79
2021/05/13 13:56:07;;;;;;;;;;;15.50;71.40;;;;;;4302656;33;20011;-79
2021/05/13 13:58:35;;;;;;;;;;;15.60;71.70;;;;;;4289224;33;20079;-79
2021/05/13 14:01:05;;;;;;;;;;;15.60;71.70;;;;;;4302572;33;20069;-79
2021/05/13 14:03:37;;;;;;;;;;;15.60;71.70;;;;;;4289395;33;20378;-79
2021/05/13 14:06:08;;;;;;;;;;;15.60;71.80;;;;;;4277618;33;20091;-79
2021/05/13 14:08:36;;;;;;;;;;;15.60;72.00;;;;;;4302417;33;20103;-79
2021/05/13 14:11:06;;;;;;;;;;;15.60;72.40;;;;;;4301413;33;20074;-78
2021/05/13 14:13:39;;;;;;;;;;;15.60;72.40;;;;;;4289490;33;20045;-79
2021/05/13 14:16:06;;;;;;;;;;;15.60;72.60;;;;;;4302787;33;20400;-79
2021/05/13 14:18:39;;;;;;;;;;;15.50;72.70;;;;;;4301466;33;20024;-79
2021/05/13 14:21:12;;;;;;;;;;;15.60;72.80;;;;;;4301581;33;20025;-79
2021/05/13 14:23:40;;;;;;;;;;;15.50;72.80;;;;;;4289289;33;20046;-79
2021/05/13 14:26:10;;;;;;;;;;;15.50;72.60;;;;;;4302408;33;20019;-79
2021/05/13 14:28:37;;;;;;;;;;;15.50;72.60;;;;;;4300940;33;20013;-79
2021/05/13 14:31:08;;;;;;;;;;;15.50;72.50;;;;;;4291691;33;20002;-78
2021/05/13 14:33:49;;;;;;;;;;;15.60;72.50;;;;;;4291994;33;20006;-78
2021/05/13 14:36:24;;;;;;;;;;;15.60;72.30;;;;;;4304653;33;20364;-79
2021/05/13 14:38:51;;;;;;;;;;;15.60;72.50;;;;;;4304822;33;20431;-79
2021/05/13 14:41:19;;;;;;;;;;;15.60;72.70;;;;;;4303978;33;20015;-79
2021/05/13 14:43:49;;;;;;;;;;;15.50;73.00;;;;;;4305046;33;20002;-79
2021/05/13 14:46:23;;;;;;;;;;;15.50;73.20;;;;;;4291580;33;20513;-79
2021/05/13 14:51:40;;;;;;;;;;;15.50;73.10;;;;;;4304237;33;24040;-79